Time;durP1;ratioP1;P1;durP2;ratioP2;P2;SDS_P1;SDS_P2;PMS_P1;PMS_P2;Temp;Humidity;BMP_temperature;BMP_pressure;BME280_temperature;BME280_humidity;BME280_pressure;Samples;Min_cycle;Max_cycle;Signal;HPM_P1;HPM_P2
2021/05/31 00:01:01;;;;;;;37.78;23.88;;;;;;;;;;5030831;28;20026;-66
2021/05/31 00:03:27;;;;;;;40.90;25.63;;;;;;;;;;5025640;28;20029;-65
2021/05/31 00:05:53;;;;;;;37.42;25.80;;;;;;;;;;5032406;28;20045;-67
2021/05/31 00:08:19;;;;;;;42.95;25.48;;;;;;;;;;5031698;28;20507;-65
2021/05/31 00:10:45;;;;;;;47.42;26.05;;;;;;;;;;5024834;28;20030;-65
2021/05/31 00:13:11;;;;;;;43.22;24.60;;;;;;;;;;5024609;28;20030;-65
2021/05/31 00:15:38;;;;;;;43.47;25.65;;;;;;;;;;5031877;28;20025;-66
2021/05/31 00:18:04;;;;;;;39.53;25.63;;;;;;;;;;5029160;28;20445;-65
2021/05/31 00:20:30;;;;;;;42.67;24.02;;;;;;;;;;5029219;28;20120;-65
2021/05/31 00:22:56;;;;;;;42.88;26.27;;;;;;;;;;5028471;28;20037;-66
2021/05/31 00:25:23;;;;;;;45.78;27.80;;;;;;;;;;5032055;28;20060;-67
2021/05/31 00:27:49;;;;;;;50.30;27.02;;;;;;;;;;5030365;28;20068;-66
2021/05/31 00:30:16;;;;;;;45.25;25.23;;;;;;;;;;5030096;28;20038;-65
2021/05/31 00:32:42;;;;;;;44.83;24.55;;;;;;;;;;5028597;28;20632;-65
2021/05/31 00:35:09;;;;;;;40.35;25.15;;;;;;;;;;5023828;28;20044;-66
2021/05/31 00:37:36;;;;;;;46.53;29.17;;;;;;;;;;5018349;28;20087;-65
2021/05/31 00:40:02;;;;;;;52.90;27.80;;;;;;;;;;5031338;28;20030;-65
2021/05/31 00:42:28;;;;;;;48.92;26.52;;;;;;;;;;5026190;28;20733;-70
2021/05/31 00:44:54;;;;;;;41.22;26.48;;;;;;;;;;5019096;28;20033;-65
2021/05/31 00:47:20;;;;;;;44.90;25.88;;;;;;;;;;5031271;28;20797;-65
2021/05/31 00:49:46;;;;;;;44.38;26.67;;;;;;;;;;5021182;28;20408;-65
2021/05/31 00:52:12;;;;;;;50.67;27.08;;;;;;;;;;5021373;28;20034;-65
2021/05/31 00:54:38;;;;;;;44.30;26.95;;;;;;;;;;5030169;28;20053;-65
2021/05/31 00:57:05;;;;;;;49.22;26.77;;;;;;;;;;5031587;28;20049;-65
2021/05/31 00:59:31;;;;;;;42.15;23.63;;;;;;;;;;5029469;28;20040;-65
2021/05/31 01:01:58;;;;;;;50.17;26.83;;;;;;;;;;5019446;28;20109;-65
2021/05/31 01:04:24;;;;;;;40.40;24.70;;;;;;;;;;5025827;28;20076;-65
2021/05/31 01:06:59;;;;;;;47.38;26.77;;;;;;;;;;5028623;28;20040;-65
2021/05/31 01:09:30;;;;;;;43.60;24.52;;;;;;;;;;5023449;28;20036;-65
2021/05/31 01:12:02;;;;;;;43.07;26.13;;;;;;;;;;5029581;28;20511;-65
2021/05/31 01:14:36;;;;;;;45.92;25.30;;;;;;;;;;5019115;28;20048;-65
2021/05/31 01:17:06;;;;;;;39.40;23.65;;;;;;;;;;5024812;28;20036;-65
2021/05/31 01:19:45;;;;;;;44.05;24.08;;;;;;;;;;5019922;28;20120;-65
2021/05/31 01:22:12;;;;;;;39.17;25.23;;;;;;;;;;5027196;28;20022;-65
2021/05/31 01:24:48;;;;;;;37.72;23.13;;;;;;;;;;5022475;28;20044;-65
2021/05/31 01:27:20;;;;;;;40.65;21.55;;;;;;;;;;5028120;28;20017;-65
2021/05/31 01:29:54;;;;;;;34.33;22.27;;;;;;;;;;5022045;28;20053;-65
2021/05/31 01:32:23;;;;;;;41.40;21.10;;;;;;;;;;5026771;28;20029;-65
2021/05/31 01:34:51;;;;;;;35.40;19.75;;;;;;;;;;5030313;28;20059;-65
2021/05/31 01:37:19;;;;;;;37.75;19.83;;;;;;;;;;5029875;28;20045;-65
2021/05/31 01:39:47;;;;;;;29.92;17.58;;;;;;;;;;5029095;28;20034;-65
2021/05/31 01:42:13;;;;;;;34.80;20.00;;;;;;;;;;5026849;28;20088;-65
2021/05/31 01:44:40;;;;;;;30.38;17.23;;;;;;;;;;5029597;28;20044;-65
2021/05/31 01:47:07;;;;;;;30.55;18.75;;;;;;;;;;5029337;28;20029;-66
2021/05/31 01:49:35;;;;;;;35.20;17.23;;;;;;;;;;5028759;28;20198;-65
2021/05/31 01:52:01;;;;;;;31.13;17.15;;;;;;;;;;5018653;28;20033;-65
2021/05/31 01:54:27;;;;;;;26.42;17.00;;;;;;;;;;5026430;28;20034;-65
2021/05/31 01:56:55;;;;;;;29.27;17.05;;;;;;;;;;5027651;28;20428;-65
2021/05/31 01:59:21;;;;;;;29.23;17.25;;;;;;;;;;5018358;28;20026;-65
2021/05/31 02:01:48;;;;;;;30.70;16.17;;;;;;;;;;5024939;28;20373;-65
2021/05/31 02:04:15;;;;;;;32.38;17.52;;;;;;;;;;5022946;28;20053;-65
2021/05/31 02:06:41;;;;;;;29.05;16.45;;;;;;;;;;5012300;28;20061;-65
2021/05/31 02:09:07;;;;;;;26.67;15.32;;;;;;;;;;5029789;28;20033;-65
2021/05/31 02:11:51;;;;;;;27.35;16.60;;;;;;;;;;5027774;28;20056;-65
2021/05/31 02:14:26;;;;;;;23.50;14.68;;;;;;;;;;5026164;28;20021;-65
2021/05/31 02:17:01;;;;;;;27.10;14.35;;;;;;;;;;5029499;28;20504;-65
2021/05/31 02:19:28;;;;;;;26.95;14.38;;;;;;;;;;5019987;28;20021;-65
2021/05/31 02:21:55;;;;;;;25.33;15.30;;;;;;;;;;5023041;28;20036;-65
2021/05/31 02:24:22;;;;;;;29.95;14.55;;;;;;;;;;5024792;28;20049;-65
2021/05/31 02:26:48;;;;;;;29.45;15.55;;;;;;;;;;5026032;28;20029;-65
2021/05/31 02:29:14;;;;;;;24.15;14.57;;;;;;;;;;5026439;28;20041;-65
2021/05/31 02:31:42;;;;;;;25.77;14.38;;;;;;;;;;5028861;28;20052;-65
2021/05/31 02:34:08;;;;;;;27.80;15.98;;;;;;;;;;5029223;28;20025;-65
2021/05/31 02:36:35;;;;;;;25.42;14.65;;;;;;;;;;5023796;28;20025;-65
2021/05/31 02:39:01;;;;;;;27.45;14.43;;;;;;;;;;5025753;28;20029;-65
2021/05/31 02:41:27;;;;;;;28.55;14.13;;;;;;;;;;5029453;28;20056;-66
2021/05/31 02:43:53;;;;;;;24.52;14.50;;;;;;;;;;5027690;28;20026;-65
2021/05/31 02:46:19;;;;;;;28.58;14.77;;;;;;;;;;5027509;28;20057;-65
2021/05/31 02:48:45;;;;;;;30.17;15.55;;;;;;;;;;5027175;28;20488;-65
2021/05/31 02:51:12;;;;;;;25.75;13.73;;;;;;;;;;5013225;28;20038;-65
2021/05/31 02:53:38;;;;;;;22.27;13.73;;;;;;;;;;5028284;28;20029;-65
2021/05/31 02:56:06;;;;;;;22.27;14.10;;;;;;;;;;5026559;28;20037;-65
2021/05/31 02:58:32;;;;;;;26.38;14.40;;;;;;;;;;5029488;28;20393;-65
2021/05/31 03:00:58;;;;;;;24.80;14.52;;;;;;;;;;5032366;28;20404;-65
2021/05/31 03:03:24;;;;;;;31.05;15.95;;;;;;;;;;5032563;28;20606;-65
2021/05/31 03:05:50;;;;;;;30.95;15.75;;;;;;;;;;5015720;28;20402;-65
2021/05/31 03:08:16;;;;;;;31.15;15.40;;;;;;;;;;5027976;28;20052;-65
2021/05/31 03:10:42;;;;;;;24.83;14.57;;;;;;;;;;5020507;28;20029;-65
2021/05/31 03:13:08;;;;;;;25.88;14.15;;;;;;;;;;5031386;28;20040;-65
2021/05/31 03:15:35;;;;;;;28.00;15.38;;;;;;;;;;5024400;28;20032;-65
2021/05/31 03:18:01;;;;;;;27.25;15.07;;;;;;;;;;5018457;28;20033;-65
2021/05/31 03:20:29;;;;;;;28.63;14.98;;;;;;;;;;5024335;28;20026;-65
2021/05/31 03:22:55;;;;;;;27.95;14.70;;;;;;;;;;5026594;28;20022;-65
2021/05/31 03:25:22;;;;;;;25.23;14.43;;;;;;;;;;5017916;28;20022;-65
2021/05/31 03:27:48;;;;;;;25.50;14.10;;;;;;;;;;5021403;28;20033;-65
2021/05/31 03:30:15;;;;;;;27.75;15.77;;;;;;;;;;5027007;28;20541;-64
2021/05/31 03:32:42;;;;;;;27.42;14.77;;;;;;;;;;5031288;28;20033;-65
2021/05/31 03:35:09;;;;;;;28.33;14.45;;;;;;;;;;5026726;28;20033;-64
2021/05/31 03:37:35;;;;;;;27.13;14.77;;;;;;;;;;5028179;28;20034;-65
2021/05/31 03:40:01;;;;;;;27.58;15.30;;;;;;;;;;5029642;28;20030;-65
2021/05/31 03:42:27;;;;;;;33.10;15.85;;;;;;;;;;5024499;28;20529;-65
2021/05/31 03:44:53;;;;;;;33.25;16.33;;;;;;;;;;5026032;28;20037;-65
2021/05/31 03:47:19;;;;;;;24.60;14.60;;;;;;;;;;5031157;28;20029;-65
2021/05/31 03:49:45;;;;;;;29.23;15.73;;;;;;;;;;5021018;28;20044;-65
2021/05/31 03:52:12;;;;;;;29.13;16.27;;;;;;;;;;5018517;28;20112;-65
2021/05/31 03:54:38;;;;;;;35.10;16.65;;;;;;;;;;5027614;28;20029;-65
2021/05/31 03:57:04;;;;;;;30.85;15.50;;;;;;;;;;5026522;28;20033;-65
2021/05/31 03:59:30;;;;;;;31.40;17.35;;;;;;;;;;5024559;28;20020;-65
2021/05/31 04:01:57;;;;;;;28.23;15.60;;;;;;;;;;5027623;28;20034;-65
2021/05/31 04:04:23;;;;;;;37.47;17.38;;;;;;;;;;5019166;28;20052;-64
2021/05/31 04:12:01;;;;;;;34.58;18.48;;;;;;;;;;5030486;28;20064;-65
2021/05/31 04:14:27;;;;;;;27.73;16.40;;;;;;;;;;5026217;28;20025;-65
2021/05/31 04:16:55;;;;;;;28.65;17.80;;;;;;;;;;5031440;28;20022;-66
2021/05/31 04:19:22;;;;;;;28.48;17.42;;;;;;;;;;5029335;28;20040;-65
2021/05/31 04:21:49;;;;;;;31.60;17.70;;;;;;;;;;5029192;28;20023;-65
2021/05/31 04:24:16;;;;;;;29.73;16.20;;;;;;;;;;5029896;28;20061;-65
2021/05/31 04:26:42;;;;;;;25.63;16.67;;;;;;;;;;5040075;28;20034;-65
2021/05/31 04:29:09;;;;;;;27.88;16.17;;;;;;;;;;5026969;28;20032;-65
2021/05/31 04:31:36;;;;;;;36.28;17.75;;;;;;;;;;5031965;28;20484;-65
2021/05/31 04:34:03;;;;;;;28.95;17.17;;;;;;;;;;5030272;28;20453;-65
2021/05/31 04:36:29;;;;;;;38.00;16.98;;;;;;;;;;5027416;28;20508;-65
2021/05/31 04:38:55;;;;;;;33.38;16.40;;;;;;;;;;5020257;28;20037;-65
2021/05/31 04:41:21;;;;;;;28.70;15.95;;;;;;;;;;5026329;28;20475;-66
2021/05/31 04:43:48;;;;;;;38.00;17.48;;;;;;;;;;5027723;28;20014;-65
2021/05/31 04:46:14;;;;;;;33.03;17.75;;;;;;;;;;5027800;28;20044;-64
2021/05/31 04:48:40;;;;;;;29.77;17.05;;;;;;;;;;5030824;28;20025;-65
2021/05/31 04:51:06;;;;;;;28.33;16.23;;;;;;;;;;5029979;28;20052;-65
2021/05/31 04:53:32;;;;;;;32.38;16.73;;;;;;;;;;5026805;28;20030;-65
2021/05/31 04:56:00;;;;;;;28.23;16.10;;;;;;;;;;5029339;28;20025;-65
2021/05/31 04:58:26;;;;;;;28.60;15.77;;;;;;;;;;5030369;28;20013;-64
2021/05/31 05:00:53;;;;;;;25.33;16.58;;;;;;;;;;5029170;28;20105;-65
2021/05/31 05:03:19;;;;;;;27.30;15.40;;;;;;;;;;5028923;28;20080;-64
2021/05/31 05:05:45;;;;;;;27.20;15.55;;;;;;;;;;5025310;28;20049;-65
2021/05/31 05:08:11;;;;;;;28.63;16.05;;;;;;;;;;5030585;28;20460;-65
2021/05/31 05:10:38;;;;;;;26.33;17.77;;;;;;;;;;5025395;28;20565;-64
2021/05/31 05:13:04;;;;;;;30.42;16.20;;;;;;;;;;5021953;28;20022;-64
2021/05/31 05:15:30;;;;;;;31.27;17.45;;;;;;;;;;5024024;28;20024;-65
2021/05/31 05:17:56;;;;;;;31.42;16.15;;;;;;;;;;5024286;28;20029;-65
2021/05/31 05:20:24;;;;;;;28.88;16.27;;;;;;;;;;5025656;28;20037;-65
2021/05/31 05:22:50;;;;;;;22.40;15.30;;;;;;;;;;5026223;28;20022;-66
2021/05/31 05:25:17;;;;;;;31.48;15.48;;;;;;;;;;5029573;28;20038;-64
2021/05/31 05:27:44;;;;;;;29.35;16.17;;;;;;;;;;5027647;28;20028;-65
2021/05/31 05:30:11;;;;;;;28.40;16.20;;;;;;;;;;5027501;28;20492;-65
2021/05/31 05:32:37;;;;;;;23.65;15.88;;;;;;;;;;5024760;28;20128;-65
2021/05/31 05:35:41;;;;;;;24.17;15.85;;;;;;;;;;5014674;28;20522;-65
2021/05/31 05:46:22;;;;;;;27.98;16.90;;;;;;;;;;5011829;28;20029;-65
2021/05/31 05:48:48;;;;;;;30.15;17.30;;;;;;;;;;5011776;28;20046;-65
2021/05/31 05:51:14;;;;;;;27.65;17.25;;;;;;;;;;5011261;28;20040;-65
2021/05/31 05:53:41;;;;;;;28.50;17.70;;;;;;;;;;5011871;28;20223;-65
2021/05/31 05:56:09;;;;;;;26.85;16.17;;;;;;;;;;5011416;28;20034;-64
2021/05/31 05:58:36;;;;;;;27.15;16.50;;;;;;;;;;5009781;28;20045;-64
2021/05/31 06:01:02;;;;;;;31.23;17.20;;;;;;;;;;5018475;28;20029;-65
2021/05/31 06:03:28;;;;;;;27.50;16.17;;;;;;;;;;5010990;28;20021;-65
2021/05/31 06:05:55;;;;;;;28.52;17.85;;;;;;;;;;5030339;28;20483;-65
2021/05/31 06:08:21;;;;;;;31.38;17.00;;;;;;;;;;5031163;28;20036;-65
2021/05/31 06:10:48;;;;;;;32.17;16.17;;;;;;;;;;5028325;28;20032;-65
2021/05/31 06:13:14;;;;;;;27.42;17.20;;;;;;;;;;5021437;28;20028;-65
2021/05/31 06:15:40;;;;;;;23.13;14.63;;;;;;;;;;5010284;28;20036;-65
2021/05/31 06:18:06;;;;;;;27.17;16.60;;;;;;;;;;5009974;28;20029;-65
2021/05/31 06:20:34;;;;;;;27.17;15.95;;;;;;;;;;5012868;28;20030;-66
2021/05/31 06:23:01;;;;;;;26.45;16.95;;;;;;;;;;5010085;28;20040;-65
2021/05/31 06:25:27;;;;;;;28.67;14.93;;;;;;;;;;5021687;28;20264;-65
2021/05/31 06:27:53;;;;;;;22.60;14.88;;;;;;;;;;5020563;28;20045;-64
2021/05/31 06:30:19;;;;;;;28.23;16.38;;;;;;;;;;5017861;28;20087;-65
2021/05/31 06:32:45;;;;;;;25.52;15.05;;;;;;;;;;5017735;28;20053;-65
2021/05/31 06:35:12;;;;;;;26.10;15.43;;;;;;;;;;5018451;28;20028;-65
2021/05/31 06:37:38;;;;;;;25.92;15.20;;;;;;;;;;5021588;28;20032;-65
2021/05/31 06:40:10;;;;;;;24.70;15.65;;;;;;;;;;5017880;28;20022;-64
2021/05/31 06:42:37;;;;;;;21.38;14.52;;;;;;;;;;5015648;28;20030;-64
2021/05/31 06:45:03;;;;;;;24.65;14.30;;;;;;;;;;5016499;28;20117;-65
2021/05/31 06:47:29;;;;;;;23.45;14.35;;;;;;;;;;5020649;28;20025;-64
2021/05/31 06:49:56;;;;;;;23.67;14.93;;;;;;;;;;5018603;28;20021;-65
2021/05/31 06:52:22;;;;;;;27.38;15.07;;;;;;;;;;5016124;28;20513;-65
2021/05/31 06:54:49;;;;;;;23.77;15.30;;;;;;;;;;5017391;28;20478;-65
2021/05/31 06:57:15;;;;;;;27.15;14.77;;;;;;;;;;5018650;28;20671;-65
2021/05/31 06:59:41;;;;;;;25.08;14.60;;;;;;;;;;5024224;28;20028;-65
2021/05/31 07:02:08;;;;;;;23.90;14.30;;;;;;;;;;5019869;28;20029;-65
2021/05/31 07:04:34;;;;;;;28.75;15.75;;;;;;;;;;5015116;28;20057;-65
2021/05/31 07:07:00;;;;;;;26.15;16.20;;;;;;;;;;5019623;28;20063;-65
2021/05/31 07:09:26;;;;;;;24.48;14.60;;;;;;;;;;5019507;28;20029;-65
2021/05/31 07:11:52;;;;;;;25.17;15.80;;;;;;;;;;5017643;28;20033;-65
2021/05/31 07:14:21;;;;;;;27.00;16.73;;;;;;;;;;5018549;28;20097;-65
2021/05/31 07:16:50;;;;;;;26.45;15.43;;;;;;;;;;5016763;28;20109;-65
2021/05/31 07:19:16;;;;;;;24.52;14.70;;;;;;;;;;5017000;28;20033;-65
2021/05/31 07:21:42;;;;;;;26.52;16.25;;;;;;;;;;5016523;28;20448;-65
2021/05/31 07:24:09;;;;;;;20.90;14.90;;;;;;;;;;5014378;28;20026;-65
2021/05/31 07:26:36;;;;;;;27.13;15.57;;;;;;;;;;5020027;28;20025;-65
2021/05/31 07:29:03;;;;;;;26.65;16.20;;;;;;;;;;5024859;28;20013;-65
2021/05/31 07:31:29;;;;;;;25.55;15.73;;;;;;;;;;5018574;28;20030;-64
2021/05/31 07:33:55;;;;;;;23.95;14.48;;;;;;;;;;5020112;28;20060;-65
2021/05/31 07:36:21;;;;;;;25.60;15.68;;;;;;;;;;5018912;28;20488;-68
2021/05/31 07:38:47;;;;;;;24.85;16.10;;;;;;;;;;5021911;28;20017;-65
2021/05/31 07:41:13;;;;;;;23.45;14.57;;;;;;;;;;5022465;28;20033;-64
2021/05/31 07:43:39;;;;;;;26.02;15.73;;;;;;;;;;5020756;28;20033;-65
2021/05/31 07:46:05;;;;;;;22.15;14.25;;;;;;;;;;5022540;28;20037;-65
2021/05/31 07:48:31;;;;;;;27.63;16.00;;;;;;;;;;5029753;28;20045;-67
2021/05/31 07:51:15;;;;;;;26.52;14.88;;;;;;;;;;5025689;28;20034;-65
2021/05/31 07:53:41;;;;;;;26.63;15.23;;;;;;;;;;5023265;28;20030;-65
2021/05/31 07:56:07;;;;;;;22.50;13.50;;;;;;;;;;5026477;28;20029;-65
2021/05/31 07:58:33;;;;;;;25.05;14.80;;;;;;;;;;5029404;28;20047;-64
2021/05/31 08:01:01;;;;;;;32.10;16.35;;;;;;;;;;5026342;28;20033;-65
2021/05/31 08:03:27;;;;;;;24.33;13.80;;;;;;;;;;5024426;28;20025;-65
2021/05/31 08:05:53;;;;;;;22.30;15.07;;;;;;;;;;5025200;28;20524;-65
2021/05/31 08:08:19;;;;;;;26.80;14.30;;;;;;;;;;5023558;28;20493;-66
2021/05/31 08:10:45;;;;;;;24.00;14.60;;;;;;;;;;5025701;28;20032;-65
2021/05/31 08:13:11;;;;;;;25.33;14.45;;;;;;;;;;5024537;28;20029;-65
2021/05/31 08:15:37;;;;;;;21.73;14.23;;;;;;;;;;5019443;28;20385;-65
2021/05/31 08:18:03;;;;;;;21.95;13.15;;;;;;;;;;5024353;28;20029;-64
2021/05/31 08:20:29;;;;;;;22.77;14.88;;;;;;;;;;5027571;28;20063;-65
2021/05/31 08:22:55;;;;;;;25.35;13.20;;;;;;;;;;5027151;28;20083;-65
2021/05/31 08:25:21;;;;;;;20.92;13.13;;;;;;;;;;5031133;28;20030;-64
2021/05/31 08:27:47;;;;;;;24.55;13.27;;;;;;;;;;5024881;28;20048;-65
2021/05/31 08:30:14;;;;;;;24.58;13.38;;;;;;;;;;5021069;28;20018;-66
2021/05/31 08:32:40;;;;;;;20.92;13.32;;;;;;;;;;5020426;28;20420;-65
2021/05/31 08:35:06;;;;;;;20.38;12.55;;;;;;;;;;5023284;28;20033;-65
2021/05/31 08:37:32;;;;;;;20.88;12.55;;;;;;;;;;5025413;28;20028;-65
2021/05/31 08:39:58;;;;;;;19.83;13.18;;;;;;;;;;5031724;28;20127;-65
2021/05/31 08:42:24;;;;;;;20.02;12.43;;;;;;;;;;5021364;28;20322;-65
2021/05/31 08:44:51;;;;;;;25.45;12.30;;;;;;;;;;5025799;28;20100;-65
2021/05/31 08:47:18;;;;;;;19.48;11.93;;;;;;;;;;5031208;28;20033;-65
2021/05/31 08:49:44;;;;;;;19.75;11.93;;;;;;;;;;5023093;28;20030;-66
2021/05/31 08:52:10;;;;;;;17.85;12.15;;;;;;;;;;5028535;28;20018;-65
2021/05/31 08:54:36;;;;;;;17.00;10.52;;;;;;;;;;5022796;28;20017;-65
2021/05/31 08:57:03;;;;;;;19.02;12.23;;;;;;;;;;5020864;28;20036;-65
2021/05/31 08:59:29;;;;;;;19.27;12.70;;;;;;;;;;5027748;28;20585;-67
2021/05/31 09:01:55;;;;;;;15.68;10.18;;;;;;;;;;5024099;28;20103;-65
2021/05/31 09:04:21;;;;;;;17.25;11.23;;;;;;;;;;5018124;28;20265;-65
2021/05/31 09:06:55;;;;;;;22.17;11.95;;;;;;;;;;5030621;28;20022;-66
2021/05/31 09:09:21;;;;;;;16.83;10.70;;;;;;;;;;5030960;28;20504;-65
2021/05/31 09:11:54;;;;;;;17.83;10.50;;;;;;;;;;5031633;28;20026;-65
2021/05/31 09:14:23;;;;;;;21.65;10.98;;;;;;;;;;5026132;28;20052;-64
2021/05/31 09:16:49;;;;;;;22.58;11.18;;;;;;;;;;5020256;28;20079;-65
2021/05/31 09:19:16;;;;;;;18.95;11.48;;;;;;;;;;5014130;28;20022;-65
2021/05/31 09:21:42;;;;;;;15.45;10.43;;;;;;;;;;5033383;28;20194;-64
2021/05/31 09:24:12;;;;;;;14.23;9.27;;;;;;;;;;5018491;28;20050;-64
2021/05/31 09:26:46;;;;;;;16.20;10.50;;;;;;;;;;5022580;28;20026;-64
2021/05/31 09:29:12;;;;;;;16.55;10.93;;;;;;;;;;5020853;28;20025;-64
2021/05/31 09:31:38;;;;;;;15.63;9.38;;;;;;;;;;5025462;28;20105;-65
2021/05/31 09:34:05;;;;;;;15.50;9.00;;;;;;;;;;5024441;28;20108;-65
2021/05/31 09:36:32;;;;;;;15.13;8.93;;;;;;;;;;5021829;28;20113;-65
2021/05/31 09:38:58;;;;;;;13.73;8.13;;;;;;;;;;5024400;28;20491;-64
2021/05/31 09:41:31;;;;;;;13.23;7.65;;;;;;;;;;5029579;28;20496;-64
2021/05/31 09:44:01;;;;;;;13.30;8.13;;;;;;;;;;5021125;28;20029;-65
2021/05/31 09:46:38;;;;;;;12.32;7.22;;;;;;;;;;5028899;28;20087;-65
2021/05/31 09:49:30;;;;;;;10.35;6.80;;;;;;;;;;5026619;28;20069;-66
2021/05/31 09:52:01;;;;;;;16.00;7.57;;;;;;;;;;5021744;28;20042;-64
2021/05/31 09:54:36;;;;;;;10.30;6.20;;;;;;;;;;5022073;28;20108;-64
2021/05/31 09:57:15;;;;;;;9.68;6.10;;;;;;;;;;5021722;28;20037;-64
2021/05/31 09:59:41;;;;;;;15.48;8.50;;;;;;;;;;5020506;28;20093;-64
2021/05/31 10:02:09;;;;;;;15.93;8.73;;;;;;;;;;5020694;28;20026;-64
2021/05/31 10:04:47;;;;;;;15.20;8.55;;;;;;;;;;5019496;28;20120;-67
2021/05/31 10:07:20;;;;;;;12.23;7.35;;;;;;;;;;5021262;28;20096;-66
2021/05/31 10:09:47;;;;;;;14.20;7.22;;;;;;;;;;5021429;28;20036;-66
2021/05/31 10:12:13;;;;;;;13.02;7.57;;;;;;;;;;5024488;28;20219;-66
2021/05/31 10:14:40;;;;;;;14.32;7.35;;;;;;;;;;5026370;28;20025;-65
2021/05/31 10:17:06;;;;;;;13.52;7.63;;;;;;;;;;5027558;28;20022;-65
2021/05/31 10:19:32;;;;;;;11.07;5.72;;;;;;;;;;5022496;28;20574;-65
2021/05/31 10:21:59;;;;;;;11.95;6.60;;;;;;;;;;5031285;28;20068;-65
2021/05/31 10:24:26;;;;;;;9.68;5.88;;;;;;;;;;5024348;28;20049;-64
2021/05/31 10:26:53;;;;;;;11.20;5.45;;;;;;;;;;5024567;28;20029;-64
2021/05/31 10:29:19;;;;;;;13.77;7.18;;;;;;;;;;5024842;28;20033;-66
2021/05/31 10:31:46;;;;;;;9.38;5.43;;;;;;;;;;5019257;28;20057;-64
2021/05/31 10:34:19;;;;;;;8.57;5.30;;;;;;;;;;5020215;28;20048;-64
2021/05/31 10:36:49;;;;;;;12.77;7.38;;;;;;;;;;5011312;28;20025;-66
2021/05/31 10:39:21;;;;;;;11.93;6.50;;;;;;;;;;5021672;28;20091;-64
2021/05/31 10:41:49;;;;;;;11.82;6.50;;;;;;;;;;5018493;28;20203;-65
2021/05/31 10:44:19;;;;;;;9.55;5.38;;;;;;;;;;5025777;28;20520;-64
2021/05/31 10:46:47;;;;;;;13.77;7.32;;;;;;;;;;5026485;28;20019;-64
2021/05/31 10:49:16;;;;;;;11.25;6.47;;;;;;;;;;5023629;28;20029;-64
2021/05/31 10:51:43;;;;;;;12.40;5.68;;;;;;;;;;5022164;28;20033;-64
2021/05/31 10:54:13;;;;;;;9.95;4.82;;;;;;;;;;5025137;28;20035;-66
2021/05/31 10:56:41;;;;;;;9.95;4.90;;;;;;;;;;5023272;28;20505;-64
2021/05/31 10:59:07;;;;;;;9.70;4.97;;;;;;;;;;5024781;28;20037;-65
2021/05/31 11:01:33;;;;;;;12.48;5.45;;;;;;;;;;5019453;28;20032;-66
2021/05/31 11:04:01;;;;;;;9.90;5.45;;;;;;;;;;5020819;28;20041;-64
2021/05/31 11:06:30;;;;;;;13.43;5.93;;;;;;;;;;5024850;28;20053;-64
2021/05/31 11:08:58;;;;;;;10.98;5.60;;;;;;;;;;5020926;28;20112;-67
2021/05/31 11:11:29;;;;;;;8.93;4.70;;;;;;;;;;5023249;28;20053;-65
2021/05/31 11:13:55;;;;;;;12.53;5.77;;;;;;;;;;5018920;28;20061;-65
2021/05/31 11:16:21;;;;;;;9.93;6.15;;;;;;;;;;5024981;28;20688;-64
2021/05/31 11:18:48;;;;;;;9.23;5.97;;;;;;;;;;5022554;28;20021;-66
2021/05/31 11:21:33;;;;;;;9.10;5.40;;;;;;;;;;5024245;28;20132;-65
2021/05/31 11:24:00;;;;;;;13.55;5.22;;;;;;;;;;5020688;28;20118;-65
2021/05/31 11:26:27;;;;;;;13.50;8.90;;;;;;;;;;5025554;28;20507;-67
2021/05/31 11:28:55;;;;;;;14.07;7.40;;;;;;;;;;5024159;28;20030;-64
2021/05/31 11:31:21;;;;;;;16.13;10.02;;;;;;;;;;5027105;28;20124;-64
2021/05/31 11:33:52;;;;;;;18.35;10.48;;;;;;;;;;5023292;28;20076;-64
2021/05/31 11:36:26;;;;;;;25.13;13.65;;;;;;;;;;5025161;28;20052;-64
2021/05/31 11:38:52;;;;;;;22.05;13.57;;;;;;;;;;5025092;28;20061;-64
2021/05/31 11:41:19;;;;;;;22.13;14.48;;;;;;;;;;5026097;28;20135;-64
2021/05/31 11:43:51;;;;;;;21.67;13.10;;;;;;;;;;5024496;28;20485;-64
2021/05/31 11:46:17;;;;;;;23.92;13.20;;;;;;;;;;5027734;28;20186;-64
2021/05/31 11:48:43;;;;;;;21.15;12.23;;;;;;;;;;5028533;28;20030;-64
2021/05/31 11:51:12;;;;;;;22.77;12.88;;;;;;;;;;5024452;28;20095;-64
2021/05/31 11:53:44;;;;;;;21.48;12.45;;;;;;;;;;5021186;28;21198;-65
2021/05/31 11:56:10;;;;;;;21.05;12.60;;;;;;;;;;5022835;28;20037;-63
2021/05/31 11:58:40;;;;;;;18.35;11.27;;;;;;;;;;5026231;28;20014;-64
2021/05/31 12:01:08;;;;;;;18.90;11.00;;;;;;;;;;5022873;28;20030;-64
2021/05/31 12:03:34;;;;;;;15.90;11.63;;;;;;;;;;5027343;28;20021;-64
2021/05/31 12:06:09;;;;;;;18.38;9.82;;;;;;;;;;5027172;28;20047;-64
2021/05/31 12:08:36;;;;;;;22.95;13.98;;;;;;;;;;5026742;28;20025;-65
2021/05/31 12:11:02;;;;;;;17.10;11.70;;;;;;;;;;5028689;28;20080;-64
2021/05/31 12:13:29;;;;;;;19.67;9.90;;;;;;;;;;5027500;28;20518;-64
2021/05/31 12:15:55;;;;;;;18.55;10.30;;;;;;;;;;5031858;28;20512;-64
2021/05/31 12:18:23;;;;;;;20.05;11.93;;;;;;;;;;5019166;28;20037;-65
2021/05/31 12:20:55;;;;;;;19.10;11.18;;;;;;;;;;5033486;28;20024;-64
2021/05/31 12:23:23;;;;;;;18.90;12.02;;;;;;;;;;5026243;28;20112;-65
2021/05/31 12:25:49;;;;;;;20.23;12.38;;;;;;;;;;5028263;28;20030;-64
2021/05/31 12:28:17;;;;;;;23.23;14.27;;;;;;;;;;5022794;28;20029;-64
2021/05/31 12:30:47;;;;;;;24.25;14.55;;;;;;;;;;5019014;28;20486;-65
2021/05/31 12:33:14;;;;;;;22.75;13.90;;;;;;;;;;5027925;28;20069;-67
2021/05/31 12:35:42;;;;;;;20.63;13.70;;;;;;;;;;5030778;28;20029;-64
2021/05/31 12:38:08;;;;;;;20.10;13.60;;;;;;;;;;5031436;28;20037;-65
2021/05/31 12:40:36;;;;;;;21.58;13.38;;;;;;;;;;5024717;28;20033;-64
2021/05/31 12:43:03;;;;;;;22.67;13.57;;;;;;;;;;5030029;28;20022;-64
2021/05/31 12:45:29;;;;;;;21.13;12.82;;;;;;;;;;5029668;28;20073;-64
2021/05/31 12:47:55;;;;;;;24.27;14.35;;;;;;;;;;5032102;28;20040;-65
2021/05/31 12:50:26;;;;;;;18.95;12.15;;;;;;;;;;5030899;28;20101;-65
2021/05/31 12:52:53;;;;;;;23.25;13.93;;;;;;;;;;5019852;28;20057;-65
2021/05/31 12:55:25;;;;;;;26.30;13.77;;;;;;;;;;5029133;28;20467;-67
2021/05/31 12:57:51;;;;;;;21.63;14.13;;;;;;;;;;5028729;28;20026;-64
2021/05/31 13:00:19;;;;;;;22.25;13.13;;;;;;;;;;5028836;28;20444;-65
2021/05/31 13:02:46;;;;;;;24.70;15.20;;;;;;;;;;5027499;28;20029;-65
2021/05/31 13:05:13;;;;;;;29.42;18.70;;;;;;;;;;5030997;28;20057;-66
2021/05/31 13:07:41;;;;;;;32.50;18.75;;;;;;;;;;5027721;28;20026;-65
2021/05/31 13:10:07;;;;;;;29.23;17.15;;;;;;;;;;5027340;28;20084;-65
2021/05/31 13:12:33;;;;;;;31.17;17.30;;;;;;;;;;5027073;28;20302;-65
2021/05/31 13:15:01;;;;;;;27.63;17.38;;;;;;;;;;5028749;28;20112;-65
2021/05/31 13:17:31;;;;;;;26.55;16.30;;;;;;;;;;5028967;28;20049;-64
2021/05/31 13:20:11;;;;;;;28.38;14.65;;;;;;;;;;5027691;28;20017;-65
2021/05/31 13:22:38;;;;;;;35.20;16.15;;;;;;;;;;5028834;28;20038;-64
2021/05/31 13:25:05;;;;;;;23.83;14.43;;;;;;;;;;5028866;28;20072;-64
2021/05/31 13:27:33;;;;;;;25.50;14.00;;;;;;;;;;5027472;28;20104;-65
2021/05/31 13:30:12;;;;;;;24.80;14.80;;;;;;;;;;5031197;28;20022;-68
2021/05/31 13:32:39;;;;;;;27.02;16.73;;;;;;;;;;5026301;28;20387;-65
2021/05/31 13:35:09;;;;;;;27.13;15.93;;;;;;;;;;5030038;28;20032;-66
2021/05/31 13:37:55;;;;;;;23.23;14.95;;;;;;;;;;5026888;28;20041;-65
2021/05/31 13:40:29;;;;;;;24.20;14.98;;;;;;;;;;5022069;28;20102;-64
2021/05/31 13:43:04;;;;;;;26.88;16.73;;;;;;;;;;5018720;28;20064;-65
2021/05/31 13:45:30;;;;;;;26.70;16.63;;;;;;;;;;5022236;28;20163;-67
2021/05/31 13:47:56;;;;;;;27.77;15.57;;;;;;;;;;5025386;28;20041;-67
2021/05/31 13:50:27;;;;;;;25.00;14.45;;;;;;;;;;5023194;28;20037;-64
2021/05/31 13:52:54;;;;;;;29.35;17.60;;;;;;;;;;5019106;28;20025;-65
2021/05/31 13:55:20;;;;;;;28.33;19.25;;;;;;;;;;5022848;28;20026;-66
2021/05/31 13:57:48;;;;;;;33.33;20.13;;;;;;;;;;5022311;28;20025;-64
2021/05/31 14:00:14;;;;;;;37.00;18.55;;;;;;;;;;5023262;28;20121;-65
2021/05/31 14:02:40;;;;;;;30.85;18.20;;;;;;;;;;5023002;28;20052;-67
2021/05/31 14:05:07;;;;;;;35.50;19.20;;;;;;;;;;5021826;28;20124;-67
2021/05/31 14:07:34;;;;;;;29.15;17.15;;;;;;;;;;5025012;28;20164;-67
2021/05/31 14:10:00;;;;;;;31.02;17.48;;;;;;;;;;5029337;28;20028;-67
2021/05/31 14:12:27;;;;;;;28.33;17.15;;;;;;;;;;5027656;28;20042;-66
2021/05/31 14:14:53;;;;;;;31.23;19.20;;;;;;;;;;5028700;28;20057;-68
2021/05/31 14:17:19;;;;;;;37.05;22.02;;;;;;;;;;5026838;28;20028;-65
2021/05/31 14:19:45;;;;;;;35.25;22.00;;;;;;;;;;5025853;28;20549;-66
2021/05/31 14:22:15;;;;;;;33.10;21.35;;;;;;;;;;5027468;28;20164;-66
2021/05/31 14:24:41;;;;;;;38.72;21.70;;;;;;;;;;5027576;28;20029;-66
2021/05/31 14:27:11;;;;;;;35.03;20.75;;;;;;;;;;5024828;28;20091;-67
2021/05/31 14:29:38;;;;;;;33.00;22.88;;;;;;;;;;5026835;28;20030;-67
2021/05/31 14:32:05;;;;;;;37.13;21.73;;;;;;;;;;5020339;28;20029;-66
2021/05/31 14:34:31;;;;;;;37.40;22.58;;;;;;;;;;5027423;28;20448;-66